UKON/NLV METAR and TAF weather

Enter ICAO airport designator
Station Type Date Time Source
UKON METAR 2020/05/29 11:00 UTC NOAA

UKON 291100Z 23002MPS 150V280 9999 SCT024CB 17/12 Q1008 R22/090075 NOSIG


Station Type Date Time Source
UKON Decoded METAR 2020/05/29 11:00 UTC NOAA

Mykolaiv, Ukraine (UKON) 47-03-29N 031-55-15E
May 29, 2020 - 07:00 AM EDT / 2020.05.29 1100 UTC
Wind: from the SW (230 degrees) at 4 MPH (4 KT) (direction variable):0
Visibility: greater than 7 mile(s):0
Sky conditions: partly cloudy
Weather: Cumulonimbus clouds observed
Temperature: 62 F (17 C)
Dew Point: 53 F (12 C)
Relative Humidity: 72%
Pressure (altimeter): 29.77 in. Hg (1008 hPa)
ob: UKON 291100Z 23002MPS 150V280 9999 SCT024CB 17/12 Q1008 R22/090075 NOSIG
cycle: 11

Station Type Date Time Source
UKON TAF 2018/11/06 15:06 UTC NOAA

TAF
AMD TAF
AMD UKON 061502Z 0615/0724 CNL

Example: see airport list